sensor_id;sensor_type;location;lat;lon;timestamp;P1;durP1;ratioP1;P2;durP2;ratioP2
24485;SDS011;13449;49.374;8.584;2024-03-07T00:01:56;42.80;;;16.75;;
24485;SDS011;13449;49.374;8.584;2024-03-07T00:04:24;45.97;;;19.67;;
24485;SDS011;13449;49.374;8.584;2024-03-07T00:06:51;43.90;;;18.48;;
24485;SDS011;13449;49.374;8.584;2024-03-07T00:09:17;53.60;;;17.30;;
24485;SDS011;13449;49.374;8.584;2024-03-07T00:11:52;44.92;;;17.35;;
24485;SDS011;13449;49.374;8.584;2024-03-07T00:14:20;42.53;;;16.73;;
24485;SDS011;13449;49.374;8.584;2024-03-07T00:16:47;52.67;;;18.63;;
24485;SDS011;13449;49.374;8.584;2024-03-07T00:19:13;40.83;;;15.98;;
24485;SDS011;13449;49.374;8.584;2024-03-07T00:21:41;44.63;;;17.52;;
24485;SDS011;13449;49.374;8.584;2024-03-07T00:24:07;42.13;;;17.20;;
24485;SDS011;13449;49.374;8.584;2024-03-07T00:26:34;48.13;;;19.33;;
24485;SDS011;13449;49.374;8.584;2024-03-07T00:29:01;42.85;;;16.60;;
24485;SDS011;13449;49.374;8.584;2024-03-07T00:31:28;30.63;;;14.55;;
24485;SDS011;13449;49.374;8.584;2024-03-07T00:33:56;49.28;;;17.20;;
24485;SDS011;13449;49.374;8.584;2024-03-07T00:36:41;36.95;;;14.93;;
24485;SDS011;13449;49.374;8.584;2024-03-07T00:39:11;41.25;;;14.45;;
24485;SDS011;13449;49.374;8.584;2024-03-07T00:41:40;40.42;;;15.23;;
24485;SDS011;13449;49.374;8.584;2024-03-07T00:44:08;46.55;;;16.25;;
24485;SDS011;13449;49.374;8.584;2024-03-07T00:46:35;36.85;;;14.32;;
24485;SDS011;13449;49.374;8.584;2024-03-07T00:49:03;42.38;;;15.93;;
24485;SDS011;13449;49.374;8.584;2024-03-07T00:51:30;36.75;;;15.13;;
24485;SDS011;13449;49.374;8.584;2024-03-07T00:53:56;37.13;;;13.82;;
24485;SDS011;13449;49.374;8.584;2024-03-07T00:56:26;38.65;;;15.15;;
24485;SDS011;13449;49.374;8.584;2024-03-07T00:58:54;44.20;;;16.48;;
24485;SDS011;13449;49.374;8.584;2024-03-07T01:01:25;37.10;;;13.68;;
24485;SDS011;13449;49.374;8.584;2024-03-07T01:03:52;39.63;;;15.27;;
24485;SDS011;13449;49.374;8.584;2024-03-07T01:06:19;34.78;;;14.32;;
24485;SDS011;13449;49.374;8.584;2024-03-07T01:08:46;40.13;;;15.18;;
24485;SDS011;13449;49.374;8.584;2024-03-07T01:11:13;33.75;;;13.82;;
24485;SDS011;13449;49.374;8.584;2024-03-07T01:13:42;41.08;;;15.40;;
24485;SDS011;13449;49.374;8.584;2024-03-07T01:16:09;38.95;;;13.38;;
24485;SDS011;13449;49.374;8.584;2024-03-07T01:18:36;38.58;;;15.18;;
24485;SDS011;13449;49.374;8.584;2024-03-07T01:21:04;32.20;;;13.15;;
24485;SDS011;13449;49.374;8.584;2024-03-07T01:23:33;31.70;;;14.05;;
24485;SDS011;13449;49.374;8.584;2024-03-07T01:26:00;33.38;;;13.68;;
24485;SDS011;13449;49.374;8.584;2024-03-07T01:28:29;38.35;;;14.75;;
24485;SDS011;13449;49.374;8.584;2024-03-07T01:30:57;36.83;;;15.55;;
24485;SDS011;13449;49.374;8.584;2024-03-07T01:33:26;40.25;;;16.30;;
24485;SDS011;13449;49.374;8.584;2024-03-07T01:35:53;35.33;;;15.05;;
24485;SDS011;13449;49.374;8.584;2024-03-07T01:38:20;36.70;;;15.30;;
24485;SDS011;13449;49.374;8.584;2024-03-07T01:40:47;44.58;;;15.15;;
24485;SDS011;13449;49.374;8.584;2024-03-07T01:43:16;44.03;;;16.17;;
24485;SDS011;13449;49.374;8.584;2024-03-07T01:45:42;40.25;;;15.13;;
24485;SDS011;13449;49.374;8.584;2024-03-07T01:48:11;41.72;;;16.33;;
24485;SDS011;13449;49.374;8.584;2024-03-07T01:50:42;46.42;;;17.27;;
24485;SDS011;13449;49.374;8.584;2024-03-07T01:53:09;41.45;;;16.10;;
24485;SDS011;13449;49.374;8.584;2024-03-07T01:55:38;43.60;;;16.40;;
24485;SDS011;13449;49.374;8.584;2024-03-07T01:58:04;40.55;;;15.85;;
24485;SDS011;13449;49.374;8.584;2024-03-07T02:00:36;37.05;;;15.25;;
24485;SDS011;13449;49.374;8.584;2024-03-07T02:03:03;38.83;;;15.82;;
24485;SDS011;13449;49.374;8.584;2024-03-07T02:05:29;41.72;;;17.10;;
24485;SDS011;13449;49.374;8.584;2024-03-07T02:07:57;49.08;;;18.80;;
24485;SDS011;13449;49.374;8.584;2024-03-07T02:10:24;45.38;;;17.90;;
24485;SDS011;13449;49.374;8.584;2024-03-07T02:12:51;43.45;;;16.20;;
24485;SDS011;13449;49.374;8.584;2024-03-07T02:15:20;41.75;;;16.65;;
24485;SDS011;13449;49.374;8.584;2024-03-07T02:17:46;44.05;;;16.27;;
24485;SDS011;13449;49.374;8.584;2024-03-07T02:20:13;35.38;;;14.63;;
24485;SDS011;13449;49.374;8.584;2024-03-07T02:22:40;48.30;;;18.05;;
24485;SDS011;13449;49.374;8.584;2024-03-07T02:25:10;53.40;;;20.35;;
24485;SDS011;13449;49.374;8.584;2024-03-07T02:27:37;46.53;;;18.52;;
24485;SDS011;13449;49.374;8.584;2024-03-07T02:30:04;51.53;;;17.92;;
24485;SDS011;13449;49.374;8.584;2024-03-07T02:32:31;45.97;;;18.83;;
24485;SDS011;13449;49.374;8.584;2024-03-07T02:34:59;40.60;;;17.27;;
24485;SDS011;13449;49.374;8.584;2024-03-07T02:37:25;43.13;;;17.08;;
24485;SDS011;13449;49.374;8.584;2024-03-07T02:39:52;46.10;;;17.60;;
24485;SDS011;13449;49.374;8.584;2024-03-07T02:42:19;51.42;;;21.55;;
24485;SDS011;13449;49.374;8.584;2024-03-07T02:44:45;48.72;;;20.23;;
24485;SDS011;13449;49.374;8.584;2024-03-07T02:47:12;54.90;;;18.70;;
24485;SDS011;13449;49.374;8.584;2024-03-07T02:49:39;50.55;;;19.98;;
24485;SDS011;13449;49.374;8.584;2024-03-07T02:52:05;45.05;;;18.55;;
24485;SDS011;13449;49.374;8.584;2024-03-07T02:54:34;46.13;;;19.58;;
24485;SDS011;13449;49.374;8.584;2024-03-07T02:57:03;38.88;;;17.73;;
24485;SDS011;13449;49.374;8.584;2024-03-07T02:59:32;45.25;;;19.88;;
24485;SDS011;13449;49.374;8.584;2024-03-07T03:01:59;42.78;;;17.95;;
24485;SDS011;13449;49.374;8.584;2024-03-07T03:04:25;43.45;;;17.88;;
24485;SDS011;13449;49.374;8.584;2024-03-07T03:06:52;37.53;;;16.30;;
24485;SDS011;13449;49.374;8.584;2024-03-07T03:09:18;41.22;;;17.05;;
24485;SDS011;13449;49.374;8.584;2024-03-07T03:11:45;44.03;;;17.60;;
24485;SDS011;13449;49.374;8.584;2024-03-07T03:14:12;45.30;;;18.83;;
24485;SDS011;13449;49.374;8.584;2024-03-07T03:16:43;38.83;;;17.75;;
24485;SDS011;13449;49.374;8.584;2024-03-07T03:19:14;36.65;;;16.77;;
24485;SDS011;13449;49.374;8.584;2024-03-07T03:21:43;37.30;;;16.98;;
24485;SDS011;13449;49.374;8.584;2024-03-07T03:24:10;39.28;;;16.65;;
24485;SDS011;13449;49.374;8.584;2024-03-07T03:26:37;40.00;;;17.63;;
24485;SDS011;13449;49.374;8.584;2024-03-07T03:29:06;35.78;;;16.58;;
24485;SDS011;13449;49.374;8.584;2024-03-07T03:31:33;43.45;;;18.13;;
24485;SDS011;13449;49.374;8.584;2024-03-07T03:34:01;38.97;;;16.02;;
24485;SDS011;13449;49.374;8.584;2024-03-07T03:36:28;38.95;;;17.10;;
24485;SDS011;13449;49.374;8.584;2024-03-07T03:38:55;37.85;;;17.15;;
24485;SDS011;13449;49.374;8.584;2024-03-07T03:41:23;46.08;;;18.17;;
24485;SDS011;13449;49.374;8.584;2024-03-07T03:43:49;36.95;;;15.93;;
24485;SDS011;13449;49.374;8.584;2024-03-07T03:46:16;39.08;;;17.17;;
24485;SDS011;13449;49.374;8.584;2024-03-07T03:48:43;37.20;;;17.02;;
24485;SDS011;13449;49.374;8.584;2024-03-07T03:51:10;40.80;;;16.90;;
24485;SDS011;13449;49.374;8.584;2024-03-07T03:53:39;36.03;;;16.63;;
24485;SDS011;13449;49.374;8.584;2024-03-07T03:56:09;42.45;;;17.55;;
24485;SDS011;13449;49.374;8.584;2024-03-07T03:58:41;41.67;;;16.17;;
24485;SDS011;13449;49.374;8.584;2024-03-07T04:01:09;31.13;;;15.02;;
24485;SDS011;13449;49.374;8.584;2024-03-07T04:03:41;33.92;;;14.35;;
24485;SDS011;13449;49.374;8.584;2024-03-07T04:06:08;35.17;;;15.35;;
24485;SDS011;13449;49.374;8.584;2024-03-07T04:08:35;36.00;;;16.90;;
24485;SDS011;13449;49.374;8.584;2024-03-07T04:11:06;50.65;;;18.77;;
24485;SDS011;13449;49.374;8.584;2024-03-07T04:13:36;33.05;;;15.68;;
24485;SDS011;13449;49.374;8.584;2024-03-07T04:16:03;37.20;;;16.00;;
24485;SDS011;13449;49.374;8.584;2024-03-07T04:18:31;38.20;;;16.95;;
24485;SDS011;13449;49.374;8.584;2024-03-07T04:20:59;38.33;;;16.50;;
24485;SDS011;13449;49.374;8.584;2024-03-07T04:23:26;31.48;;;15.18;;
24485;SDS011;13449;49.374;8.584;2024-03-07T04:25:55;34.00;;;15.98;;
24485;SDS011;13449;49.374;8.584;2024-03-07T04:28:22;35.78;;;16.02;;
24485;SDS011;13449;49.374;8.584;2024-03-07T04:30:49;37.25;;;15.50;;
24485;SDS011;13449;49.374;8.584;2024-03-07T04:33:16;35.92;;;14.48;;
24485;SDS011;13449;49.374;8.584;2024-03-07T04:35:43;34.60;;;14.45;;
24485;SDS011;13449;49.374;8.584;2024-03-07T04:38:09;41.42;;;15.18;;
24485;SDS011;13449;49.374;8.584;2024-03-07T04:40:43;30.83;;;14.93;;
24485;SDS011;13449;49.374;8.584;2024-03-07T04:43:10;37.08;;;14.75;;
24485;SDS011;13449;49.374;8.584;2024-03-07T04:45:37;30.80;;;13.52;;
24485;SDS011;13449;49.374;8.584;2024-03-07T04:48:04;29.23;;;12.55;;
24485;SDS011;13449;49.374;8.584;2024-03-07T04:50:31;36.80;;;14.55;;
24485;SDS011;13449;49.374;8.584;2024-03-07T04:52:58;29.08;;;14.52;;
24485;SDS011;13449;49.374;8.584;2024-03-07T04:55:28;31.35;;;13.98;;
24485;SDS011;13449;49.374;8.584;2024-03-07T04:57:54;29.60;;;12.98;;
24485;SDS011;13449;49.374;8.584;2024-03-07T05:00:21;26.98;;;13.25;;
24485;SDS011;13449;49.374;8.584;2024-03-07T05:02:48;31.30;;;13.82;;
24485;SDS011;13449;49.374;8.584;2024-03-07T05:05:17;31.35;;;13.75;;
24485;SDS011;13449;49.374;8.584;2024-03-07T05:07:52;32.67;;;14.25;;
24485;SDS011;13449;49.374;8.584;2024-03-07T05:10:19;27.60;;;13.27;;
24485;SDS011;13449;49.374;8.584;2024-03-07T05:12:46;30.25;;;13.65;;
24485;SDS011;13449;49.374;8.584;2024-03-07T05:15:13;32.40;;;14.00;;
24485;SDS011;13449;49.374;8.584;2024-03-07T05:17:42;36.05;;;14.68;;
24485;SDS011;13449;49.374;8.584;2024-03-07T05:20:10;35.78;;;15.15;;
24485;SDS011;13449;49.374;8.584;2024-03-07T05:22:39;33.22;;;15.95;;
24485;SDS011;13449;49.374;8.584;2024-03-07T05:25:17;34.53;;;14.80;;
24485;SDS011;13449;49.374;8.584;2024-03-07T05:27:45;40.08;;;16.67;;
24485;SDS011;13449;49.374;8.584;2024-03-07T05:30:12;32.85;;;14.75;;
24485;SDS011;13449;49.374;8.584;2024-03-07T05:32:40;29.67;;;13.50;;
24485;SDS011;13449;49.374;8.584;2024-03-07T05:35:07;32.85;;;13.52;;
24485;SDS011;13449;49.374;8.584;2024-03-07T05:37:34;30.75;;;13.63;;
24485;SDS011;13449;49.374;8.584;2024-03-07T05:40:00;29.42;;;13.77;;
24485;SDS011;13449;49.374;8.584;2024-03-07T05:42:29;25.65;;;12.15;;
24485;SDS011;13449;49.374;8.584;2024-03-07T05:44:56;31.60;;;12.75;;
24485;SDS011;13449;49.374;8.584;2024-03-07T05:47:22;34.70;;;13.23;;
24485;SDS011;13449;49.374;8.584;2024-03-07T05:49:49;24.50;;;11.88;;
24485;SDS011;13449;49.374;8.584;2024-03-07T05:52:18;31.60;;;13.65;;
24485;SDS011;13449;49.374;8.584;2024-03-07T05:54:45;32.42;;;11.93;;
24485;SDS011;13449;49.374;8.584;2024-03-07T05:57:14;40.42;;;14.65;;
24485;SDS011;13449;49.374;8.584;2024-03-07T05:59:43;31.35;;;13.75;;
24485;SDS011;13449;49.374;8.584;2024-03-07T06:02:13;26.98;;;13.20;;
24485;SDS011;13449;49.374;8.584;2024-03-07T06:04:42;26.60;;;12.18;;
24485;SDS011;13449;49.374;8.584;2024-03-07T06:07:10;24.90;;;11.48;;
24485;SDS011;13449;49.374;8.584;2024-03-07T06:09:37;26.83;;;11.80;;
24485;SDS011;13449;49.374;8.584;2024-03-07T06:12:06;28.27;;;11.63;;
24485;SDS011;13449;49.374;8.584;2024-03-07T06:14:51;27.30;;;12.00;;
24485;SDS011;13449;49.374;8.584;2024-03-07T06:17:17;32.65;;;13.75;;
24485;SDS011;13449;49.374;8.584;2024-03-07T06:19:49;33.03;;;13.13;;
24485;SDS011;13449;49.374;8.584;2024-03-07T06:22:16;35.95;;;12.07;;
24485;SDS011;13449;49.374;8.584;2024-03-07T06:24:42;28.83;;;12.55;;
24485;SDS011;13449;49.374;8.584;2024-03-07T06:27:09;30.38;;;12.70;;
24485;SDS011;13449;49.374;8.584;2024-03-07T06:29:42;32.95;;;13.20;;
24485;SDS011;13449;49.374;8.584;2024-03-07T06:32:09;36.60;;;13.40;;
24485;SDS011;13449;49.374;8.584;2024-03-07T06:34:36;32.35;;;13.02;;
24485;SDS011;13449;49.374;8.584;2024-03-07T06:37:04;28.25;;;13.27;;
24485;SDS011;13449;49.374;8.584;2024-03-07T06:39:31;29.27;;;12.98;;
24485;SDS011;13449;49.374;8.584;2024-03-07T06:42:01;26.40;;;12.05;;
24485;SDS011;13449;49.374;8.584;2024-03-07T06:44:30;28.23;;;13.48;;
24485;SDS011;13449;49.374;8.584;2024-03-07T06:46:59;32.10;;;13.35;;
24485;SDS011;13449;49.374;8.584;2024-03-07T06:49:26;31.60;;;13.73;;
24485;SDS011;13449;49.374;8.584;2024-03-07T06:51:54;33.30;;;13.90;;
24485;SDS011;13449;49.374;8.584;2024-03-07T06:54:22;35.92;;;14.68;;
24485;SDS011;13449;49.374;8.584;2024-03-07T06:56:48;32.03;;;14.13;;
24485;SDS011;13449;49.374;8.584;2024-03-07T06:59:15;31.45;;;14.80;;
24485;SDS011;13449;49.374;8.584;2024-03-07T07:01:42;39.20;;;15.20;;
24485;SDS011;13449;49.374;8.584;2024-03-07T07:04:09;34.15;;;14.82;;
24485;SDS011;13449;49.374;8.584;2024-03-07T07:06:39;33.60;;;13.70;;
24485;SDS011;13449;49.374;8.584;2024-03-07T07:09:08;32.17;;;13.57;;
24485;SDS011;13449;49.374;8.584;2024-03-07T07:11:35;32.40;;;13.90;;
24485;SDS011;13449;49.374;8.584;2024-03-07T07:14:02;31.05;;;14.70;;
24485;SDS011;13449;49.374;8.584;2024-03-07T07:16:29;35.67;;;14.05;;
24485;SDS011;13449;49.374;8.584;2024-03-07T07:18:57;35.05;;;14.35;;
24485;SDS011;13449;49.374;8.584;2024-03-07T07:21:24;32.95;;;14.38;;
24485;SDS011;13449;49.374;8.584;2024-03-07T07:23:50;35.30;;;14.82;;
24485;SDS011;13449;49.374;8.584;2024-03-07T07:26:17;29.75;;;13.55;;
24485;SDS011;13449;49.374;8.584;2024-03-07T07:28:46;31.73;;;13.75;;
24485;SDS011;13449;49.374;8.584;2024-03-07T07:31:13;28.83;;;14.20;;
24485;SDS011;13449;49.374;8.584;2024-03-07T07:33:39;39.53;;;13.90;;
24485;SDS011;13449;49.374;8.584;2024-03-07T07:36:06;29.48;;;13.80;;
24485;SDS011;13449;49.374;8.584;2024-03-07T07:38:33;28.33;;;13.02;;
24485;SDS011;13449;49.374;8.584;2024-03-07T07:41:04;30.17;;;15.18;;
24485;SDS011;13449;49.374;8.584;2024-03-07T07:43:34;29.85;;;13.68;;
24485;SDS011;13449;49.374;8.584;2024-03-07T07:46:08;30.00;;;13.70;;
24485;SDS011;13449;49.374;8.584;2024-03-07T07:48:35;29.98;;;13.52;;
24485;SDS011;13449;49.374;8.584;2024-03-07T07:51:02;29.50;;;13.80;;
24485;SDS011;13449;49.374;8.584;2024-03-07T07:53:32;25.08;;;12.23;;
24485;SDS011;13449;49.374;8.584;2024-03-07T07:56:01;32.35;;;15.00;;
24485;SDS011;13449;49.374;8.584;2024-03-07T07:58:31;28.48;;;13.15;;
24485;SDS011;13449;49.374;8.584;2024-03-07T08:00:57;29.02;;;13.32;;
24485;SDS011;13449;49.374;8.584;2024-03-07T08:03:24;31.42;;;14.02;;
24485;SDS011;13449;49.374;8.584;2024-03-07T08:05:54;27.40;;;13.60;;
24485;SDS011;13449;49.374;8.584;2024-03-07T08:08:23;23.35;;;11.48;;
24485;SDS011;13449;49.374;8.584;2024-03-07T08:10:50;28.58;;;12.35;;
24485;SDS011;13449;49.374;8.584;2024-03-07T08:13:17;31.65;;;12.27;;
24485;SDS011;13449;49.374;8.584;2024-03-07T08:15:43;23.90;;;13.40;;
24485;SDS011;13449;49.374;8.584;2024-03-07T08:18:10;24.30;;;12.55;;
24485;SDS011;13449;49.374;8.584;2024-03-07T08:20:40;25.27;;;13.25;;
24485;SDS011;13449;49.374;8.584;2024-03-07T08:23:09;27.60;;;12.85;;
24485;SDS011;13449;49.374;8.584;2024-03-07T08:25:39;25.20;;;12.25;;
24485;SDS011;13449;49.374;8.584;2024-03-07T08:28:07;25.08;;;12.95;;
24485;SDS011;13449;49.374;8.584;2024-03-07T08:30:34;33.20;;;12.65;;
24485;SDS011;13449;49.374;8.584;2024-03-07T08:33:01;26.92;;;12.73;;
24485;SDS011;13449;49.374;8.584;2024-03-07T08:35:35;28.95;;;12.88;;
24485;SDS011;13449;49.374;8.584;2024-03-07T08:38:02;31.00;;;12.27;;
24485;SDS011;13449;49.374;8.584;2024-03-07T08:40:29;23.88;;;12.13;;
24485;SDS011;13449;49.374;8.584;2024-03-07T08:43:00;29.50;;;12.13;;
24485;SDS011;13449;49.374;8.584;2024-03-07T08:45:28;25.35;;;12.23;;
24485;SDS011;13449;49.374;8.584;2024-03-07T08:48:14;27.92;;;12.27;;
24485;SDS011;13449;49.374;8.584;2024-03-07T08:50:43;23.00;;;12.18;;
24485;SDS011;13449;49.374;8.584;2024-03-07T08:53:09;26.73;;;11.93;;
24485;SDS011;13449;49.374;8.584;2024-03-07T08:55:36;25.95;;;11.60;;
24485;SDS011;13449;49.374;8.584;2024-03-07T08:58:03;25.45;;;11.13;;
24485;SDS011;13449;49.374;8.584;2024-03-07T09:00:36;18.08;;;11.00;;
24485;SDS011;13449;49.374;8.584;2024-03-07T09:03:06;22.70;;;11.55;;
24485;SDS011;13449;49.374;8.584;2024-03-07T09:05:40;20.45;;;11.38;;
24485;SDS011;13449;49.374;8.584;2024-03-07T09:08:08;17.35;;;9.82;;
24485;SDS011;13449;49.374;8.584;2024-03-07T09:10:35;20.17;;;9.40;;
24485;SDS011;13449;49.374;8.584;2024-03-07T09:13:02;21.63;;;9.88;;
24485;SDS011;13449;49.374;8.584;2024-03-07T09:15:29;20.38;;;10.05;;
24485;SDS011;13449;49.374;8.584;2024-03-07T09:17:56;18.70;;;9.95;;
24485;SDS011;13449;49.374;8.584;2024-03-07T09:20:25;20.35;;;10.23;;
24485;SDS011;13449;49.374;8.584;2024-03-07T09:22:52;19.60;;;11.00;;
24485;SDS011;13449;49.374;8.584;2024-03-07T09:25:22;22.48;;;10.95;;
24485;SDS011;13449;49.374;8.584;2024-03-07T09:27:49;22.27;;;10.57;;
24485;SDS011;13449;49.374;8.584;2024-03-07T09:30:16;22.77;;;10.40;;
24485;SDS011;13449;49.374;8.584;2024-03-07T09:32:47;19.20;;;10.98;;
24485;SDS011;13449;49.374;8.584;2024-03-07T09:35:16;26.55;;;11.02;;
24485;SDS011;13449;49.374;8.584;2024-03-07T09:37:43;20.95;;;10.60;;
24485;SDS011;13449;49.374;8.584;2024-03-07T09:40:11;21.08;;;11.35;;
24485;SDS011;13449;49.374;8.584;2024-03-07T09:42:42;23.65;;;11.65;;
24485;SDS011;13449;49.374;8.584;2024-03-07T09:45:16;24.70;;;12.23;;
24485;SDS011;13449;49.374;8.584;2024-03-07T09:47:49;28.73;;;12.35;;
24485;SDS011;13449;49.374;8.584;2024-03-07T09:50:20;21.73;;;11.52;;
24485;SDS011;13449;49.374;8.584;2024-03-07T09:52:54;26.02;;;12.10;;
24485;SDS011;13449;49.374;8.584;2024-03-07T09:55:22;21.48;;;11.25;;
24485;SDS011;13449;49.374;8.584;2024-03-07T09:57:52;20.38;;;11.52;;
24485;SDS011;13449;49.374;8.584;2024-03-07T10:00:20;21.40;;;11.52;;
24485;SDS011;13449;49.374;8.584;2024-03-07T10:03:12;23.33;;;11.75;;
24485;SDS011;13449;49.374;8.584;2024-03-07T10:05:40;21.23;;;11.57;;
24485;SDS011;13449;49.374;8.584;2024-03-07T10:08:08;21.20;;;10.80;;
24485;SDS011;13449;49.374;8.584;2024-03-07T10:10:34;27.05;;;11.45;;
24485;SDS011;13449;49.374;8.584;2024-03-07T10:13:08;19.73;;;10.50;;
24485;SDS011;13449;49.374;8.584;2024-03-07T10:15:36;23.77;;;11.60;;
24485;SDS011;13449;49.374;8.584;2024-03-07T10:18:06;24.58;;;12.13;;
24485;SDS011;13449;49.374;8.584;2024-03-07T10:20:34;25.13;;;11.32;;
24485;SDS011;13449;49.374;8.584;2024-03-07T10:23:04;29.33;;;12.30;;
24485;SDS011;13449;49.374;8.584;2024-03-07T10:28:05;28.80;;;10.95;;
24485;SDS011;13449;49.374;8.584;2024-03-07T10:30:40;23.50;;;12.15;;
24485;SDS011;13449;49.374;8.584;2024-03-07T10:33:08;22.90;;;10.73;;
24485;SDS011;13449;49.374;8.584;2024-03-07T10:35:36;22.73;;;11.40;;
24485;SDS011;13449;49.374;8.584;2024-03-07T10:38:03;22.45;;;13.02;;
24485;SDS011;13449;49.374;8.584;2024-03-07T10:40:34;22.70;;;12.23;;
24485;SDS011;13449;49.374;8.584;2024-03-07T10:43:09;25.50;;;12.35;;
24485;SDS011;13449;49.374;8.584;2024-03-07T10:45:42;23.20;;;12.45;;
24485;SDS011;13449;49.374;8.584;2024-03-07T10:48:16;24.65;;;12.90;;
24485;SDS011;13449;49.374;8.584;2024-03-07T11:01:39;25.63;;;12.50;;
24485;SDS011;13449;49.374;8.584;2024-03-07T11:04:11;22.33;;;11.15;;
24485;SDS011;13449;49.374;8.584;2024-03-07T11:06:41;26.67;;;13.93;;
24485;SDS011;13449;49.374;8.584;2024-03-07T11:09:10;28.00;;;12.98;;
24485;SDS011;13449;49.374;8.584;2024-03-07T11:11:40;27.98;;;13.30;;
24485;SDS011;13449;49.374;8.584;2024-03-07T11:14:08;25.25;;;12.60;;
24485;SDS011;13449;49.374;8.584;2024-03-07T11:16:38;27.25;;;12.98;;
24485;SDS011;13449;49.374;8.584;2024-03-07T11:21:54;23.33;;;12.90;;
24485;SDS011;13449;49.374;8.584;2024-03-07T11:24:22;28.98;;;13.00;;
24485;SDS011;13449;49.374;8.584;2024-03-07T11:26:55;23.77;;;13.13;;
24485;SDS011;13449;49.374;8.584;2024-03-07T11:32:13;25.70;;;14.15;;
24485;SDS011;13449;49.374;8.584;2024-03-07T11:34:41;37.25;;;14.25;;
24485;SDS011;13449;49.374;8.584;2024-03-07T11:37:09;27.67;;;13.50;;
24485;SDS011;13449;49.374;8.584;2024-03-07T11:39:50;21.67;;;12.77;;
24485;SDS011;13449;49.374;8.584;2024-03-07T11:42:23;27.00;;;14.00;;
24485;SDS011;13449;49.374;8.584;2024-03-07T11:44:52;24.77;;;13.02;;
24485;SDS011;13449;49.374;8.584;2024-03-07T11:47:25;26.10;;;13.43;;
24485;SDS011;13449;49.374;8.584;2024-03-07T11:49:56;27.88;;;14.85;;
24485;SDS011;13449;49.374;8.584;2024-03-07T11:52:24;34.97;;;15.05;;
24485;SDS011;13449;49.374;8.584;2024-03-07T11:54:54;30.33;;;14.43;;
24485;SDS011;13449;49.374;8.584;2024-03-07T11:57:31;26.73;;;13.93;;
24485;SDS011;13449;49.374;8.584;2024-03-07T12:00:02;28.13;;;13.77;;
24485;SDS011;13449;49.374;8.584;2024-03-07T12:02:37;26.05;;;13.23;;
24485;SDS011;13449;49.374;8.584;2024-03-07T12:05:05;28.27;;;13.77;;
24485;SDS011;13449;49.374;8.584;2024-03-07T12:07:35;23.90;;;12.73;;
24485;SDS011;13449;49.374;8.584;2024-03-07T12:10:02;22.75;;;12.00;;
24485;SDS011;13449;49.374;8.584;2024-03-07T12:12:31;28.17;;;13.90;;
24485;SDS011;13449;49.374;8.584;2024-03-07T12:14:59;23.50;;;11.85;;
24485;SDS011;13449;49.374;8.584;2024-03-07T12:17:29;27.63;;;13.32;;
24485;SDS011;13449;49.374;8.584;2024-03-07T12:19:58;24.85;;;12.93;;
24485;SDS011;13449;49.374;8.584;2024-03-07T12:22:31;23.92;;;12.65;;
24485;SDS011;13449;49.374;8.584;2024-03-07T12:24:59;24.13;;;12.60;;
24485;SDS011;13449;49.374;8.584;2024-03-07T12:27:34;21.92;;;11.18;;
24485;SDS011;13449;49.374;8.584;2024-03-07T12:30:14;29.98;;;13.57;;
24485;SDS011;13449;49.374;8.584;2024-03-07T12:32:47;25.77;;;11.77;;
24485;SDS011;13449;49.374;8.584;2024-03-07T12:35:15;24.42;;;12.40;;
24485;SDS011;13449;49.374;8.584;2024-03-07T12:37:42;26.08;;;12.85;;
24485;SDS011;13449;49.374;8.584;2024-03-07T12:40:12;22.70;;;11.63;;
24485;SDS011;13449;49.374;8.584;2024-03-07T12:42:48;22.58;;;11.40;;
24485;SDS011;13449;49.374;8.584;2024-03-07T12:45:17;20.75;;;11.15;;
24485;SDS011;13449;49.374;8.584;2024-03-07T12:47:46;15.68;;;9.80;;
24485;SDS011;13449;49.374;8.584;2024-03-07T12:50:23;21.42;;;11.35;;
24485;SDS011;13449;49.374;8.584;2024-03-07T12:52:49;20.83;;;10.63;;
24485;SDS011;13449;49.374;8.584;2024-03-07T12:55:17;21.45;;;10.30;;
24485;SDS011;13449;49.374;8.584;2024-03-07T12:57:50;22.15;;;10.77;;
24485;SDS011;13449;49.374;8.584;2024-03-07T13:00:17;19.15;;;10.60;;
24485;SDS011;13449;49.374;8.584;2024-03-07T13:02:47;17.88;;;10.68;;
24485;SDS011;13449;49.374;8.584;2024-03-07T13:05:16;16.52;;;9.45;;
24485;SDS011;13449;49.374;8.584;2024-03-07T13:07:48;17.75;;;10.30;;
24485;SDS011;13449;49.374;8.584;2024-03-07T13:10:15;18.17;;;9.15;;
24485;SDS011;13449;49.374;8.584;2024-03-07T13:12:44;20.45;;;9.35;;
24485;SDS011;13449;49.374;8.584;2024-03-07T13:15:15;19.92;;;10.05;;
24485;SDS011;13449;49.374;8.584;2024-03-07T13:17:44;18.85;;;9.63;;
24485;SDS011;13449;49.374;8.584;2024-03-07T13:20:15;15.97;;;9.70;;
24485;SDS011;13449;49.374;8.584;2024-03-07T13:22:42;21.20;;;9.43;;
24485;SDS011;13449;49.374;8.584;2024-03-07T13:25:20;17.67;;;9.43;;
24485;SDS011;13449;49.374;8.584;2024-03-07T13:30:40;21.52;;;11.48;;
24485;SDS011;13449;49.374;8.584;2024-03-07T13:33:10;18.75;;;9.70;;
24485;SDS011;13449;49.374;8.584;2024-03-07T13:35:37;15.35;;;8.55;;
24485;SDS011;13449;49.374;8.584;2024-03-07T13:38:07;19.65;;;9.23;;
24485;SDS011;13449;49.374;8.584;2024-03-07T13:40:34;16.42;;;10.05;;
24485;SDS011;13449;49.374;8.584;2024-03-07T13:43:07;18.75;;;9.50;;
24485;SDS011;13449;49.374;8.584;2024-03-07T13:45:36;19.33;;;10.70;;
24485;SDS011;13449;49.374;8.584;2024-03-07T13:48:07;23.33;;;11.65;;
24485;SDS011;13449;49.374;8.584;2024-03-07T13:50:39;20.08;;;10.48;;
24485;SDS011;13449;49.374;8.584;2024-03-07T13:53:26;18.20;;;8.98;;
24485;SDS011;13449;49.374;8.584;2024-03-07T14:21:23;23.20;;;10.32;;
24485;SDS011;13449;49.374;8.584;2024-03-07T14:24:05;20.58;;;11.02;;
24485;SDS011;13449;49.374;8.584;2024-03-07T14:27:03;17.33;;;9.75;;
24485;SDS011;13449;49.374;8.584;2024-03-07T14:29:39;22.15;;;10.40;;
24485;SDS011;13449;49.374;8.584;2024-03-07T14:32:13;21.67;;;9.77;;
24485;SDS011;13449;49.374;8.584;2024-03-07T14:35:02;20.77;;;9.68;;
24485;SDS011;13449;49.374;8.584;2024-03-07T14:37:54;20.23;;;10.18;;
24485;SDS011;13449;49.374;8.584;2024-03-07T14:40:28;21.42;;;9.80;;
24485;SDS011;13449;49.374;8.584;2024-03-07T14:42:58;22.02;;;9.57;;
24485;SDS011;13449;49.374;8.584;2024-03-07T14:45:34;18.55;;;9.32;;
24485;SDS011;13449;49.374;8.584;2024-03-07T14:48:04;16.40;;;9.82;;
24485;SDS011;13449;49.374;8.584;2024-03-07T14:50:33;16.70;;;8.77;;
24485;SDS011;13449;49.374;8.584;2024-03-07T14:53:00;20.73;;;9.48;;
24485;SDS011;13449;49.374;8.584;2024-03-07T14:55:29;16.67;;;9.77;;
24485;SDS011;13449;49.374;8.584;2024-03-07T14:57:57;19.10;;;9.23;;
24485;SDS011;13449;49.374;8.584;2024-03-07T15:00:24;19.27;;;9.57;;
24485;SDS011;13449;49.374;8.584;2024-03-07T15:03:02;18.52;;;8.88;;
24485;SDS011;13449;49.374;8.584;2024-03-07T15:05:29;25.08;;;10.05;;
24485;SDS011;13449;49.374;8.584;2024-03-07T15:07:56;17.55;;;9.18;;
24485;SDS011;13449;49.374;8.584;2024-03-07T15:10:25;16.88;;;9.57;;
24485;SDS011;13449;49.374;8.584;2024-03-07T15:12:54;18.67;;;9.38;;
24485;SDS011;13449;49.374;8.584;2024-03-07T15:15:21;19.92;;;9.45;;
24485;SDS011;13449;49.374;8.584;2024-03-07T15:17:51;18.80;;;9.73;;
24485;SDS011;13449;49.374;8.584;2024-03-07T15:20:17;18.95;;;9.23;;
24485;SDS011;13449;49.374;8.584;2024-03-07T15:22:53;18.80;;;10.43;;